Sherman, Nebraska
Current Conditions -  °F | °C
As of 4:35 AM on Sunday 26 Oct 2014 (Local Time) from KHDE Reporting Station
Clear Clear  
Wind Chill: 12°   Ceiling: Unl
Heat Index: 12°   Visibility: 10mi
Dew Point: 10°   Wind: 10mph
Humidity: 90%   Direction: 150°SSE
Pressure: 29.79"   Gusts: NA
Location:  40.3942°N, 99.1223°W
Report Text: KHDE 260935Z AUTO 15009KT 10SM CLR 12/10 A2979 RMK AO2 T01170101
Loading
Personal Weather Stations






























Interactive Weather Map
Tropical Storm Tracking
New forecast layout! Learn more

10-Day Weather Forecast

Advertisements
Track Severe Weather on mobile